sensor_id;sensor_type;location;lat;lon;timestamp;P1;durP1;ratioP1;P2;durP2;ratioP2
14373;SDS011;7270;49.004;12.066;2023-02-02T00:01:37;1.10;;;1.10;;
14373;SDS011;7270;49.004;12.066;2023-02-02T00:04:03;1.20;;;1.20;;
14373;SDS011;7270;49.004;12.066;2023-02-02T00:06:30;1.10;;;1.10;;
14373;SDS011;7270;49.004;12.066;2023-02-02T00:08:58;1.10;;;1.10;;
14373;SDS011;7270;49.004;12.066;2023-02-02T00:11:25;1.27;;;1.20;;
14373;SDS011;7270;49.004;12.066;2023-02-02T00:13:52;1.13;;;1.13;;
14373;SDS011;7270;49.004;12.066;2023-02-02T00:16:37;1.10;;;1.10;;
14373;SDS011;7270;49.004;12.066;2023-02-02T00:19:05;1.10;;;1.10;;
14373;SDS011;7270;49.004;12.066;2023-02-02T00:21:31;1.10;;;1.10;;
14373;SDS011;7270;49.004;12.066;2023-02-02T00:23:59;1.20;;;1.20;;
14373;SDS011;7270;49.004;12.066;2023-02-02T00:26:26;1.20;;;1.20;;
14373;SDS011;7270;49.004;12.066;2023-02-02T00:28:52;1.10;;;1.10;;
14373;SDS011;7270;49.004;12.066;2023-02-02T00:31:18;1.10;;;1.10;;
14373;SDS011;7270;49.004;12.066;2023-02-02T00:33:45;1.20;;;1.20;;
14373;SDS011;7270;49.004;12.066;2023-02-02T00:36:11;1.20;;;1.20;;
14373;SDS011;7270;49.004;12.066;2023-02-02T00:38:38;1.17;;;1.17;;
14373;SDS011;7270;49.004;12.066;2023-02-02T00:41:05;1.10;;;1.10;;
14373;SDS011;7270;49.004;12.066;2023-02-02T00:43:32;1.20;;;1.20;;
14373;SDS011;7270;49.004;12.066;2023-02-02T00:45:58;1.10;;;1.10;;
14373;SDS011;7270;49.004;12.066;2023-02-02T00:48:24;1.20;;;1.20;;
14373;SDS011;7270;49.004;12.066;2023-02-02T00:50:50;1.20;;;1.20;;
14373;SDS011;7270;49.004;12.066;2023-02-02T00:53:17;1.10;;;1.10;;
14373;SDS011;7270;49.004;12.066;2023-02-02T00:55:43;1.40;;;1.30;;
14373;SDS011;7270;49.004;12.066;2023-02-02T00:58:11;1.00;;;1.00;;
14373;SDS011;7270;49.004;12.066;2023-02-02T01:00:37;1.03;;;1.03;;
14373;SDS011;7270;49.004;12.066;2023-02-02T01:03:04;1.10;;;1.10;;
14373;SDS011;7270;49.004;12.066;2023-02-02T01:05:31;1.00;;;1.00;;
14373;SDS011;7270;49.004;12.066;2023-02-02T01:07:57;1.10;;;1.10;;
14373;SDS011;7270;49.004;12.066;2023-02-02T01:10:24;1.20;;;1.20;;
14373;SDS011;7270;49.004;12.066;2023-02-02T01:12:50;1.10;;;1.10;;
14373;SDS011;7270;49.004;12.066;2023-02-02T01:15:18;1.00;;;1.00;;
14373;SDS011;7270;49.004;12.066;2023-02-02T01:17:44;1.10;;;1.10;;
14373;SDS011;7270;49.004;12.066;2023-02-02T01:20:14;1.10;;;1.10;;
14373;SDS011;7270;49.004;12.066;2023-02-02T01:22:41;1.10;;;1.10;;
14373;SDS011;7270;49.004;12.066;2023-02-02T01:25:08;1.20;;;1.20;;
14373;SDS011;7270;49.004;12.066;2023-02-02T01:27:34;1.10;;;1.10;;
14373;SDS011;7270;49.004;12.066;2023-02-02T01:30:00;1.10;;;1.10;;
14373;SDS011;7270;49.004;12.066;2023-02-02T01:32:28;1.10;;;1.10;;
14373;SDS011;7270;49.004;12.066;2023-02-02T01:34:54;1.10;;;1.10;;
14373;SDS011;7270;49.004;12.066;2023-02-02T01:37:20;1.10;;;1.10;;
14373;SDS011;7270;49.004;12.066;2023-02-02T01:39:47;1.20;;;1.20;;
14373;SDS011;7270;49.004;12.066;2023-02-02T01:42:14;1.20;;;1.20;;
14373;SDS011;7270;49.004;12.066;2023-02-02T01:45:02;1.20;;;1.20;;
14373;SDS011;7270;49.004;12.066;2023-02-02T01:47:30;1.10;;;1.10;;
14373;SDS011;7270;49.004;12.066;2023-02-02T01:49:57;1.10;;;1.10;;
14373;SDS011;7270;49.004;12.066;2023-02-02T01:52:24;1.20;;;1.20;;
14373;SDS011;7270;49.004;12.066;2023-02-02T01:54:57;1.40;;;1.30;;
14373;SDS011;7270;49.004;12.066;2023-02-02T01:57:25;1.30;;;1.20;;
14373;SDS011;7270;49.004;12.066;2023-02-02T01:59:53;1.30;;;1.20;;
14373;SDS011;7270;49.004;12.066;2023-02-02T02:02:21;1.20;;;1.20;;
14373;SDS011;7270;49.004;12.066;2023-02-02T02:04:49;1.30;;;1.20;;
14373;SDS011;7270;49.004;12.066;2023-02-02T02:07:15;1.43;;;1.33;;
14373;SDS011;7270;49.004;12.066;2023-02-02T02:09:42;1.30;;;1.30;;
14373;SDS011;7270;49.004;12.066;2023-02-02T02:12:11;1.43;;;1.33;;
14373;SDS011;7270;49.004;12.066;2023-02-02T02:14:39;1.40;;;1.30;;
14373;SDS011;7270;49.004;12.066;2023-02-02T02:17:28;1.20;;;1.20;;
14373;SDS011;7270;49.004;12.066;2023-02-02T02:20:12;1.40;;;1.30;;
14373;SDS011;7270;49.004;12.066;2023-02-02T02:23:22;1.33;;;1.30;;
14373;SDS011;7270;49.004;12.066;2023-02-02T02:26:21;1.20;;;1.20;;
14373;SDS011;7270;49.004;12.066;2023-02-02T02:29:04;1.40;;;1.30;;
14373;SDS011;7270;49.004;12.066;2023-02-02T02:31:48;1.40;;;1.30;;
14373;SDS011;7270;49.004;12.066;2023-02-02T02:34:20;1.30;;;1.30;;
14373;SDS011;7270;49.004;12.066;2023-02-02T02:36:47;1.40;;;1.30;;
14373;SDS011;7270;49.004;12.066;2023-02-02T02:39:16;1.30;;;1.20;;
14373;SDS011;7270;49.004;12.066;2023-02-02T02:41:47;1.50;;;1.40;;
14373;SDS011;7270;49.004;12.066;2023-02-02T02:44:15;1.23;;;1.20;;
14373;SDS011;7270;49.004;12.066;2023-02-02T02:46:42;1.47;;;1.37;;
14373;SDS011;7270;49.004;12.066;2023-02-02T02:49:10;1.37;;;1.27;;
14373;SDS011;7270;49.004;12.066;2023-02-02T02:51:39;1.37;;;1.27;;
14373;SDS011;7270;49.004;12.066;2023-02-02T02:54:06;1.10;;;1.10;;
14373;SDS011;7270;49.004;12.066;2023-02-02T02:56:34;1.40;;;1.30;;
14373;SDS011;7270;49.004;12.066;2023-02-02T02:59:09;1.40;;;1.30;;
14373;SDS011;7270;49.004;12.066;2023-02-02T03:01:38;1.10;;;1.10;;
14373;SDS011;7270;49.004;12.066;2023-02-02T03:04:15;1.40;;;1.30;;
14373;SDS011;7270;49.004;12.066;2023-02-02T03:06:45;1.30;;;1.20;;
14373;SDS011;7270;49.004;12.066;2023-02-02T03:09:14;1.30;;;1.20;;
14373;SDS011;7270;49.004;12.066;2023-02-02T03:11:43;1.20;;;1.20;;
14373;SDS011;7270;49.004;12.066;2023-02-02T03:14:10;1.10;;;1.10;;
14373;SDS011;7270;49.004;12.066;2023-02-02T03:16:36;1.30;;;1.20;;
14373;SDS011;7270;49.004;12.066;2023-02-02T03:19:03;1.20;;;1.20;;
14373;SDS011;7270;49.004;12.066;2023-02-02T03:21:31;1.20;;;1.20;;
14373;SDS011;7270;49.004;12.066;2023-02-02T03:23:58;1.10;;;1.10;;
14373;SDS011;7270;49.004;12.066;2023-02-02T03:26:24;1.40;;;1.30;;
14373;SDS011;7270;49.004;12.066;2023-02-02T03:28:51;1.10;;;1.10;;
14373;SDS011;7270;49.004;12.066;2023-02-02T03:31:18;1.30;;;1.20;;
14373;SDS011;7270;49.004;12.066;2023-02-02T03:33:45;1.43;;;1.33;;
14373;SDS011;7270;49.004;12.066;2023-02-02T03:36:11;1.40;;;1.30;;
14373;SDS011;7270;49.004;12.066;2023-02-02T03:38:39;1.20;;;1.20;;
14373;SDS011;7270;49.004;12.066;2023-02-02T03:41:05;1.30;;;1.20;;
14373;SDS011;7270;49.004;12.066;2023-02-02T03:43:32;1.30;;;1.27;;
14373;SDS011;7270;49.004;12.066;2023-02-02T03:45:58;1.50;;;1.40;;
14373;SDS011;7270;49.004;12.066;2023-02-02T03:48:25;1.30;;;1.30;;
14373;SDS011;7270;49.004;12.066;2023-02-02T03:50:52;1.20;;;1.20;;
14373;SDS011;7270;49.004;12.066;2023-02-02T03:53:18;1.43;;;1.33;;
14373;SDS011;7270;49.004;12.066;2023-02-02T03:55:46;1.20;;;1.20;;
14373;SDS011;7270;49.004;12.066;2023-02-02T03:58:12;1.20;;;1.20;;
14373;SDS011;7270;49.004;12.066;2023-02-02T04:00:38;1.30;;;1.20;;
14373;SDS011;7270;49.004;12.066;2023-02-02T04:03:05;1.20;;;1.20;;
14373;SDS011;7270;49.004;12.066;2023-02-02T04:05:31;1.30;;;1.30;;
14373;SDS011;7270;49.004;12.066;2023-02-02T04:07:58;1.33;;;1.30;;
14373;SDS011;7270;49.004;12.066;2023-02-02T04:10:24;1.30;;;1.30;;
14373;SDS011;7270;49.004;12.066;2023-02-02T04:12:52;1.30;;;1.20;;
14373;SDS011;7270;49.004;12.066;2023-02-02T04:15:18;1.20;;;1.20;;
14373;SDS011;7270;49.004;12.066;2023-02-02T04:17:44;1.40;;;1.30;;
14373;SDS011;7270;49.004;12.066;2023-02-02T04:20:11;1.40;;;1.30;;
14373;SDS011;7270;49.004;12.066;2023-02-02T04:22:37;1.40;;;1.30;;
14373;SDS011;7270;49.004;12.066;2023-02-02T04:25:04;1.30;;;1.20;;
14373;SDS011;7270;49.004;12.066;2023-02-02T04:27:30;1.40;;;1.30;;
14373;SDS011;7270;49.004;12.066;2023-02-02T04:29:59;1.30;;;1.20;;
14373;SDS011;7270;49.004;12.066;2023-02-02T04:32:25;1.40;;;1.30;;
14373;SDS011;7270;49.004;12.066;2023-02-02T04:34:52;1.40;;;1.30;;
14373;SDS011;7270;49.004;12.066;2023-02-02T04:37:18;1.23;;;1.20;;
14373;SDS011;7270;49.004;12.066;2023-02-02T04:39:44;1.37;;;1.27;;
14373;SDS011;7270;49.004;12.066;2023-02-02T04:42:10;1.23;;;1.20;;
14373;SDS011;7270;49.004;12.066;2023-02-02T04:44:37;1.40;;;1.30;;
14373;SDS011;7270;49.004;12.066;2023-02-02T04:47:05;1.40;;;1.30;;
14373;SDS011;7270;49.004;12.066;2023-02-02T04:49:31;1.50;;;1.40;;
14373;SDS011;7270;49.004;12.066;2023-02-02T04:51:57;1.40;;;1.30;;
14373;SDS011;7270;49.004;12.066;2023-02-02T04:54:24;1.40;;;1.30;;
14373;SDS011;7270;49.004;12.066;2023-02-02T04:56:52;1.40;;;1.30;;
14373;SDS011;7270;49.004;12.066;2023-02-02T04:59:18;1.40;;;1.30;;
14373;SDS011;7270;49.004;12.066;2023-02-02T05:01:45;1.40;;;1.30;;
14373;SDS011;7270;49.004;12.066;2023-02-02T05:04:13;1.30;;;1.20;;
14373;SDS011;7270;49.004;12.066;2023-02-02T05:06:43;1.40;;;1.30;;
14373;SDS011;7270;49.004;12.066;2023-02-02T05:09:09;1.40;;;1.30;;
14373;SDS011;7270;49.004;12.066;2023-02-02T05:11:35;1.30;;;1.20;;
14373;SDS011;7270;49.004;12.066;2023-02-02T05:14:02;1.50;;;1.40;;
14373;SDS011;7270;49.004;12.066;2023-02-02T05:16:29;1.40;;;1.30;;
14373;SDS011;7270;49.004;12.066;2023-02-02T05:18:55;1.40;;;1.30;;
14373;SDS011;7270;49.004;12.066;2023-02-02T05:21:24;1.30;;;1.20;;
14373;SDS011;7270;49.004;12.066;2023-02-02T05:23:51;1.43;;;1.33;;
14373;SDS011;7270;49.004;12.066;2023-02-02T05:26:18;1.57;;;1.47;;
14373;SDS011;7270;49.004;12.066;2023-02-02T05:28:46;1.40;;;1.30;;
14373;SDS011;7270;49.004;12.066;2023-02-02T05:31:12;1.40;;;1.30;;
14373;SDS011;7270;49.004;12.066;2023-02-02T05:33:39;1.40;;;1.30;;
14373;SDS011;7270;49.004;12.066;2023-02-02T05:36:06;1.50;;;1.40;;
14373;SDS011;7270;49.004;12.066;2023-02-02T05:38:34;1.40;;;1.30;;
14373;SDS011;7270;49.004;12.066;2023-02-02T05:41:00;1.33;;;1.23;;
14373;SDS011;7270;49.004;12.066;2023-02-02T05:43:27;1.40;;;1.30;;
14373;SDS011;7270;49.004;12.066;2023-02-02T05:45:54;1.50;;;1.40;;
14373;SDS011;7270;49.004;12.066;2023-02-02T05:48:20;1.40;;;1.30;;
14373;SDS011;7270;49.004;12.066;2023-02-02T05:50:47;1.20;;;1.20;;
14373;SDS011;7270;49.004;12.066;2023-02-02T05:53:14;1.20;;;1.20;;
14373;SDS011;7270;49.004;12.066;2023-02-02T05:55:42;1.40;;;1.30;;
14373;SDS011;7270;49.004;12.066;2023-02-02T05:58:09;1.33;;;1.23;;
14373;SDS011;7270;49.004;12.066;2023-02-02T06:00:36;1.40;;;1.30;;
14373;SDS011;7270;49.004;12.066;2023-02-02T06:03:02;1.40;;;1.30;;
14373;SDS011;7270;49.004;12.066;2023-02-02T06:05:28;1.40;;;1.30;;
14373;SDS011;7270;49.004;12.066;2023-02-02T06:07:54;1.50;;;1.40;;
14373;SDS011;7270;49.004;12.066;2023-02-02T06:10:21;1.47;;;1.37;;
14373;SDS011;7270;49.004;12.066;2023-02-02T06:12:51;1.60;;;1.50;;
14373;SDS011;7270;49.004;12.066;2023-02-02T06:15:17;1.50;;;1.40;;
14373;SDS011;7270;49.004;12.066;2023-02-02T06:17:43;1.57;;;1.47;;
14373;SDS011;7270;49.004;12.066;2023-02-02T06:20:10;1.50;;;1.40;;
14373;SDS011;7270;49.004;12.066;2023-02-02T06:22:37;1.50;;;1.40;;
14373;SDS011;7270;49.004;12.066;2023-02-02T06:25:03;1.50;;;1.40;;
14373;SDS011;7270;49.004;12.066;2023-02-02T06:30:03;1.80;;;1.70;;
14373;SDS011;7270;49.004;12.066;2023-02-02T06:32:30;1.60;;;1.50;;
14373;SDS011;7270;49.004;12.066;2023-02-02T06:34:56;1.70;;;1.60;;
14373;SDS011;7270;49.004;12.066;2023-02-02T06:37:22;1.70;;;1.60;;
14373;SDS011;7270;49.004;12.066;2023-02-02T06:39:49;1.60;;;1.50;;
14373;SDS011;7270;49.004;12.066;2023-02-02T06:42:15;1.63;;;1.53;;
14373;SDS011;7270;49.004;12.066;2023-02-02T06:44:41;1.70;;;1.60;;
14373;SDS011;7270;49.004;12.066;2023-02-02T06:47:09;1.80;;;1.70;;
14373;SDS011;7270;49.004;12.066;2023-02-02T06:49:35;1.60;;;1.50;;
14373;SDS011;7270;49.004;12.066;2023-02-02T06:52:01;1.70;;;1.60;;
14373;SDS011;7270;49.004;12.066;2023-02-02T06:54:28;1.87;;;1.77;;
14373;SDS011;7270;49.004;12.066;2023-02-02T06:56:54;1.70;;;1.60;;
14373;SDS011;7270;49.004;12.066;2023-02-02T06:59:21;1.77;;;1.67;;
14373;SDS011;7270;49.004;12.066;2023-02-02T07:01:47;1.60;;;1.50;;
14373;SDS011;7270;49.004;12.066;2023-02-02T07:04:16;1.67;;;1.57;;
14373;SDS011;7270;49.004;12.066;2023-02-02T07:06:43;1.93;;;1.83;;
14373;SDS011;7270;49.004;12.066;2023-02-02T07:09:09;1.60;;;1.50;;
14373;SDS011;7270;49.004;12.066;2023-02-02T07:11:35;1.50;;;1.40;;
14373;SDS011;7270;49.004;12.066;2023-02-02T07:14:02;1.53;;;1.43;;
14373;SDS011;7270;49.004;12.066;2023-02-02T07:16:29;1.77;;;1.67;;
14373;SDS011;7270;49.004;12.066;2023-02-02T07:18:55;1.60;;;1.50;;
14373;SDS011;7270;49.004;12.066;2023-02-02T07:21:24;1.60;;;1.50;;
14373;SDS011;7270;49.004;12.066;2023-02-02T07:23:52;1.80;;;1.70;;
14373;SDS011;7270;49.004;12.066;2023-02-02T07:26:18;1.60;;;1.50;;
14373;SDS011;7270;49.004;12.066;2023-02-02T07:28:45;1.80;;;1.70;;
14373;SDS011;7270;49.004;12.066;2023-02-02T07:31:12;1.70;;;1.60;;
14373;SDS011;7270;49.004;12.066;2023-02-02T07:33:39;1.70;;;1.60;;
14373;SDS011;7270;49.004;12.066;2023-02-02T07:36:06;1.60;;;1.50;;
14373;SDS011;7270;49.004;12.066;2023-02-02T07:38:33;1.70;;;1.60;;
14373;SDS011;7270;49.004;12.066;2023-02-02T07:41:00;1.60;;;1.50;;
14373;SDS011;7270;49.004;12.066;2023-02-02T07:43:26;1.90;;;1.80;;
14373;SDS011;7270;49.004;12.066;2023-02-02T07:45:52;1.70;;;1.60;;
14373;SDS011;7270;49.004;12.066;2023-02-02T07:48:19;1.60;;;1.50;;
14373;SDS011;7270;49.004;12.066;2023-02-02T07:50:45;1.70;;;1.60;;
14373;SDS011;7270;49.004;12.066;2023-02-02T07:53:12;1.80;;;1.70;;
14373;SDS011;7270;49.004;12.066;2023-02-02T07:55:40;1.60;;;1.50;;
14373;SDS011;7270;49.004;12.066;2023-02-02T07:58:07;1.70;;;1.60;;
14373;SDS011;7270;49.004;12.066;2023-02-02T08:00:34;1.70;;;1.60;;
14373;SDS011;7270;49.004;12.066;2023-02-02T08:03:00;1.67;;;1.57;;
14373;SDS011;7270;49.004;12.066;2023-02-02T08:05:26;1.80;;;1.70;;
14373;SDS011;7270;49.004;12.066;2023-02-02T08:07:53;1.50;;;1.40;;
14373;SDS011;7270;49.004;12.066;2023-02-02T08:10:19;1.63;;;1.53;;
14373;SDS011;7270;49.004;12.066;2023-02-02T08:12:47;1.60;;;1.50;;
14373;SDS011;7270;49.004;12.066;2023-02-02T08:15:13;1.70;;;1.60;;
14373;SDS011;7270;49.004;12.066;2023-02-02T08:17:42;1.53;;;1.43;;
14373;SDS011;7270;49.004;12.066;2023-02-02T08:20:09;1.57;;;1.47;;
14373;SDS011;7270;49.004;12.066;2023-02-02T08:22:36;1.63;;;1.53;;
14373;SDS011;7270;49.004;12.066;2023-02-02T08:25:03;1.50;;;1.40;;
14373;SDS011;7270;49.004;12.066;2023-02-02T08:27:30;1.60;;;1.50;;
14373;SDS011;7270;49.004;12.066;2023-02-02T08:29:58;1.50;;;1.40;;
14373;SDS011;7270;49.004;12.066;2023-02-02T08:32:24;1.50;;;1.40;;
14373;SDS011;7270;49.004;12.066;2023-02-02T08:34:51;1.60;;;1.50;;
14373;SDS011;7270;49.004;12.066;2023-02-02T08:37:17;1.50;;;1.40;;
14373;SDS011;7270;49.004;12.066;2023-02-02T08:39:44;1.60;;;1.50;;
14373;SDS011;7270;49.004;12.066;2023-02-02T08:42:10;1.70;;;1.60;;
14373;SDS011;7270;49.004;12.066;2023-02-02T08:44:36;1.60;;;1.50;;
14373;SDS011;7270;49.004;12.066;2023-02-02T08:47:04;1.60;;;1.50;;
14373;SDS011;7270;49.004;12.066;2023-02-02T08:49:30;1.50;;;1.40;;
14373;SDS011;7270;49.004;12.066;2023-02-02T08:51:57;1.60;;;1.50;;
14373;SDS011;7270;49.004;12.066;2023-02-02T08:54:23;1.70;;;1.60;;
14373;SDS011;7270;49.004;12.066;2023-02-02T08:56:49;1.50;;;1.40;;
14373;SDS011;7270;49.004;12.066;2023-02-02T08:59:16;1.60;;;1.50;;
14373;SDS011;7270;49.004;12.066;2023-02-02T09:01:42;1.50;;;1.40;;
14373;SDS011;7270;49.004;12.066;2023-02-02T09:04:12;1.50;;;1.40;;
14373;SDS011;7270;49.004;12.066;2023-02-02T09:06:40;1.50;;;1.40;;
14373;SDS011;7270;49.004;12.066;2023-02-02T09:09:07;1.50;;;1.40;;
14373;SDS011;7270;49.004;12.066;2023-02-02T09:11:33;1.60;;;1.50;;
14373;SDS011;7270;49.004;12.066;2023-02-02T09:14:00;1.70;;;1.60;;
14373;SDS011;7270;49.004;12.066;2023-02-02T09:16:27;1.50;;;1.40;;
14373;SDS011;7270;49.004;12.066;2023-02-02T09:18:53;1.80;;;1.70;;
14373;SDS011;7270;49.004;12.066;2023-02-02T09:21:22;1.60;;;1.50;;
14373;SDS011;7270;49.004;12.066;2023-02-02T09:23:49;1.60;;;1.50;;
14373;SDS011;7270;49.004;12.066;2023-02-02T09:26:17;1.50;;;1.40;;
14373;SDS011;7270;49.004;12.066;2023-02-02T09:28:44;1.60;;;1.50;;
14373;SDS011;7270;49.004;12.066;2023-02-02T09:31:11;1.70;;;1.60;;
14373;SDS011;7270;49.004;12.066;2023-02-02T09:33:38;1.60;;;1.50;;
14373;SDS011;7270;49.004;12.066;2023-02-02T09:36:05;1.70;;;1.60;;
14373;SDS011;7270;49.004;12.066;2023-02-02T09:38:34;1.70;;;1.60;;
14373;SDS011;7270;49.004;12.066;2023-02-02T09:41:00;1.63;;;1.53;;
14373;SDS011;7270;49.004;12.066;2023-02-02T09:43:34;1.60;;;1.50;;
14373;SDS011;7270;49.004;12.066;2023-02-02T09:46:05;1.60;;;1.50;;
14373;SDS011;7270;49.004;12.066;2023-02-02T09:48:37;1.53;;;1.43;;
14373;SDS011;7270;49.004;12.066;2023-02-02T09:51:08;1.60;;;1.50;;
14373;SDS011;7270;49.004;12.066;2023-02-02T09:53:41;1.70;;;1.60;;
14373;SDS011;7270;49.004;12.066;2023-02-02T09:56:10;1.70;;;1.60;;
14373;SDS011;7270;49.004;12.066;2023-02-02T09:58:40;1.70;;;1.60;;
14373;SDS011;7270;49.004;12.066;2023-02-02T10:01:08;1.70;;;1.60;;
14373;SDS011;7270;49.004;12.066;2023-02-02T10:03:38;1.70;;;1.60;;
14373;SDS011;7270;49.004;12.066;2023-02-02T10:06:10;1.40;;;1.30;;
14373;SDS011;7270;49.004;12.066;2023-02-02T10:08:40;1.50;;;1.40;;
14373;SDS011;7270;49.004;12.066;2023-02-02T10:11:14;1.60;;;1.50;;
14373;SDS011;7270;49.004;12.066;2023-02-02T10:13:42;1.60;;;1.50;;
14373;SDS011;7270;49.004;12.066;2023-02-02T10:16:11;1.60;;;1.50;;
14373;SDS011;7270;49.004;12.066;2023-02-02T10:18:41;1.50;;;1.40;;
14373;SDS011;7270;49.004;12.066;2023-02-02T10:21:10;1.70;;;1.60;;
14373;SDS011;7270;49.004;12.066;2023-02-02T10:23:37;1.60;;;1.50;;
14373;SDS011;7270;49.004;12.066;2023-02-02T10:26:04;1.50;;;1.40;;
14373;SDS011;7270;49.004;12.066;2023-02-02T10:28:40;1.40;;;1.30;;
14373;SDS011;7270;49.004;12.066;2023-02-02T10:31:08;1.50;;;1.40;;
14373;SDS011;7270;49.004;12.066;2023-02-02T10:33:36;1.50;;;1.40;;
14373;SDS011;7270;49.004;12.066;2023-02-02T10:36:05;1.50;;;1.40;;
14373;SDS011;7270;49.004;12.066;2023-02-02T10:38:35;1.53;;;1.43;;
14373;SDS011;7270;49.004;12.066;2023-02-02T10:41:05;1.70;;;1.60;;
14373;SDS011;7270;49.004;12.066;2023-02-02T10:43:45;1.73;;;1.63;;
14373;SDS011;7270;49.004;12.066;2023-02-02T10:46:14;1.80;;;1.70;;
14373;SDS011;7270;49.004;12.066;2023-02-02T10:48:43;1.70;;;1.60;;
14373;SDS011;7270;49.004;12.066;2023-02-02T10:51:11;1.67;;;1.57;;
14373;SDS011;7270;49.004;12.066;2023-02-02T10:53:48;1.73;;;1.63;;
14373;SDS011;7270;49.004;12.066;2023-02-02T10:56:15;1.50;;;1.40;;
14373;SDS011;7270;49.004;12.066;2023-02-02T10:58:45;1.70;;;1.60;;
14373;SDS011;7270;49.004;12.066;2023-02-02T11:01:13;1.60;;;1.50;;
14373;SDS011;7270;49.004;12.066;2023-02-02T11:03:42;1.60;;;1.50;;
14373;SDS011;7270;49.004;12.066;2023-02-02T11:06:09;1.77;;;1.67;;
14373;SDS011;7270;49.004;12.066;2023-02-02T11:08:54;1.50;;;1.40;;
14373;SDS011;7270;49.004;12.066;2023-02-02T11:11:24;1.60;;;1.50;;
14373;SDS011;7270;49.004;12.066;2023-02-02T11:13:54;1.70;;;1.60;;
14373;SDS011;7270;49.004;12.066;2023-02-02T11:16:25;1.50;;;1.40;;
14373;SDS011;7270;49.004;12.066;2023-02-02T11:18:52;1.60;;;1.50;;
14373;SDS011;7270;49.004;12.066;2023-02-02T11:21:19;1.60;;;1.50;;
14373;SDS011;7270;49.004;12.066;2023-02-02T11:23:55;1.70;;;1.60;;
14373;SDS011;7270;49.004;12.066;2023-02-02T11:26:23;1.60;;;1.50;;
14373;SDS011;7270;49.004;12.066;2023-02-02T11:28:50;1.87;;;1.77;;
14373;SDS011;7270;49.004;12.066;2023-02-02T11:31:32;1.50;;;1.40;;
14373;SDS011;7270;49.004;12.066;2023-02-02T11:34:09;1.70;;;1.60;;
14373;SDS011;7270;49.004;12.066;2023-02-02T11:36:35;1.60;;;1.50;;
14373;SDS011;7270;49.004;12.066;2023-02-02T11:39:14;1.60;;;1.50;;
14373;SDS011;7270;49.004;12.066;2023-02-02T11:41:41;1.60;;;1.50;;
14373;SDS011;7270;49.004;12.066;2023-02-02T11:44:10;1.70;;;1.60;;
14373;SDS011;7270;49.004;12.066;2023-02-02T11:46:43;1.50;;;1.40;;
14373;SDS011;7270;49.004;12.066;2023-02-02T11:49:14;1.50;;;1.40;;
14373;SDS011;7270;49.004;12.066;2023-02-02T11:51:41;1.70;;;1.60;;
14373;SDS011;7270;49.004;12.066;2023-02-02T11:54:14;1.60;;;1.50;;
14373;SDS011;7270;49.004;12.066;2023-02-02T11:56:41;1.50;;;1.40;;
14373;SDS011;7270;49.004;12.066;2023-02-02T11:59:10;1.60;;;1.50;;
14373;SDS011;7270;49.004;12.066;2023-02-02T12:02:06;1.50;;;1.40;;
14373;SDS011;7270;49.004;12.066;2023-02-02T12:04:35;1.47;;;1.37;;
14373;SDS011;7270;49.004;12.066;2023-02-02T12:07:01;1.50;;;1.40;;
14373;SDS011;7270;49.004;12.066;2023-02-02T12:09:42;1.50;;;1.40;;
14373;SDS011;7270;49.004;12.066;2023-02-02T12:12:08;1.50;;;1.40;;
14373;SDS011;7270;49.004;12.066;2023-02-02T12:14:40;1.50;;;1.40;;
14373;SDS011;7270;49.004;12.066;2023-02-02T12:17:13;1.50;;;1.40;;
14373;SDS011;7270;49.004;12.066;2023-02-02T12:19:46;1.50;;;1.40;;
14373;SDS011;7270;49.004;12.066;2023-02-02T12:22:19;1.50;;;1.40;;
14373;SDS011;7270;49.004;12.066;2023-02-02T12:24:52;1.50;;;1.40;;
14373;SDS011;7270;49.004;12.066;2023-02-02T12:27:23;1.50;;;1.40;;
14373;SDS011;7270;49.004;12.066;2023-02-02T12:29:59;1.50;;;1.40;;
14373;SDS011;7270;49.004;12.066;2023-02-02T12:32:37;1.50;;;1.40;;
14373;SDS011;7270;49.004;12.066;2023-02-02T12:37:55;1.50;;;1.40;;
14373;SDS011;7270;49.004;12.066;2023-02-02T12:40:34;1.80;;;1.70;;
14373;SDS011;7270;49.004;12.066;2023-02-02T12:43:09;1.50;;;1.40;;
14373;SDS011;7270;49.004;12.066;2023-02-02T12:45:50;1.50;;;1.40;;
14373;SDS011;7270;49.004;12.066;2023-02-02T12:48:28;1.60;;;1.50;;
14373;SDS011;7270;49.004;12.066;2023-02-02T12:50:59;1.50;;;1.40;;
14373;SDS011;7270;49.004;12.066;2023-02-02T12:53:33;1.50;;;1.40;;
14373;SDS011;7270;49.004;12.066;2023-02-02T12:56:04;1.60;;;1.50;;
14373;SDS011;7270;49.004;12.066;2023-02-02T12:58:35;1.50;;;1.40;;
14373;SDS011;7270;49.004;12.066;2023-02-02T13:01:09;1.63;;;1.53;;
14373;SDS011;7270;49.004;12.066;2023-02-02T13:06:50;1.40;;;1.30;;
14373;SDS011;7270;49.004;12.066;2023-02-02T13:09:20;1.50;;;1.40;;
14373;SDS011;7270;49.004;12.066;2023-02-02T13:11:49;1.70;;;1.60;;
14373;SDS011;7270;49.004;12.066;2023-02-02T13:14:19;1.40;;;1.30;;
14373;SDS011;7270;49.004;12.066;2023-02-02T13:16:48;1.50;;;1.40;;
14373;SDS011;7270;49.004;12.066;2023-02-02T13:19:18;1.57;;;1.47;;
14373;SDS011;7270;49.004;12.066;2023-02-02T13:21:47;1.50;;;1.40;;
14373;SDS011;7270;49.004;12.066;2023-02-02T13:24:17;1.63;;;1.53;;
14373;SDS011;7270;49.004;12.066;2023-02-02T13:26:46;1.70;;;1.60;;
14373;SDS011;7270;49.004;12.066;2023-02-02T13:29:17;1.40;;;1.30;;
14373;SDS011;7270;49.004;12.066;2023-02-02T13:31:46;1.40;;;1.30;;
14373;SDS011;7270;49.004;12.066;2023-02-02T13:34:14;1.50;;;1.40;;
14373;SDS011;7270;49.004;12.066;2023-02-02T13:36:43;1.57;;;1.47;;
14373;SDS011;7270;49.004;12.066;2023-02-02T13:39:13;1.67;;;1.57;;
14373;SDS011;7270;49.004;12.066;2023-02-02T13:41:40;1.40;;;1.30;;
14373;SDS011;7270;49.004;12.066;2023-02-02T13:44:08;1.50;;;1.40;;
14373;SDS011;7270;49.004;12.066;2023-02-02T13:46:38;1.50;;;1.40;;
14373;SDS011;7270;49.004;12.066;2023-02-02T13:49:06;1.80;;;1.70;;
14373;SDS011;7270;49.004;12.066;2023-02-02T13:51:48;1.60;;;1.50;;
14373;SDS011;7270;49.004;12.066;2023-02-02T13:57:03;1.70;;;1.60;;
14373;SDS011;7270;49.004;12.066;2023-02-02T13:59:46;1.60;;;1.50;;
14373;SDS011;7270;49.004;12.066;2023-02-02T14:02:17;1.40;;;1.30;;
14373;SDS011;7270;49.004;12.066;2023-02-02T14:04:50;1.40;;;1.30;;
14373;SDS011;7270;49.004;12.066;2023-02-02T14:07:24;1.50;;;1.40;;
14373;SDS011;7270;49.004;12.066;2023-02-02T14:09:51;1.50;;;1.40;;
14373;SDS011;7270;49.004;12.066;2023-02-02T14:12:24;1.50;;;1.40;;
14373;SDS011;7270;49.004;12.066;2023-02-02T14:14:52;1.50;;;1.40;;
14373;SDS011;7270;49.004;12.066;2023-02-02T14:20:00;1.40;;;1.30;;
14373;SDS011;7270;49.004;12.066;2023-02-02T14:27:56;1.70;;;1.60;;
14373;SDS011;7270;49.004;12.066;2023-02-02T14:30:27;1.50;;;1.40;;
14373;SDS011;7270;49.004;12.066;2023-02-02T14:32:53;1.50;;;1.40;;
14373;SDS011;7270;49.004;12.066;2023-02-02T14:35:59;1.70;;;1.60;;
14373;SDS011;7270;49.004;12.066;2023-02-02T14:38:30;1.57;;;1.47;;
14373;SDS011;7270;49.004;12.066;2023-02-02T14:41:03;1.60;;;1.50;;
14373;SDS011;7270;49.004;12.066;2023-02-02T14:43:34;1.50;;;1.40;;
14373;SDS011;7270;49.004;12.066;2023-02-02T14:46:19;1.50;;;1.40;;
14373;SDS011;7270;49.004;12.066;2023-02-02T14:48:47;1.60;;;1.50;;
14373;SDS011;7270;49.004;12.066;2023-02-02T14:51:33;1.50;;;1.40;;
14373;SDS011;7270;49.004;12.066;2023-02-02T14:54:16;1.50;;;1.40;;
14373;SDS011;7270;49.004;12.066;2023-02-02T14:56:43;1.53;;;1.43;;
14373;SDS011;7270;49.004;12.066;2023-02-02T14:59:16;1.50;;;1.40;;
14373;SDS011;7270;49.004;12.066;2023-02-02T15:01:44;1.60;;;1.50;;
14373;SDS011;7270;49.004;12.066;2023-02-02T15:04:22;1.50;;;1.40;;
14373;SDS011;7270;49.004;12.066;2023-02-02T15:06:49;1.70;;;1.60;;
14373;SDS011;7270;49.004;12.066;2023-02-02T15:09:26;1.50;;;1.40;;
14373;SDS011;7270;49.004;12.066;2023-02-02T15:14:41;1.50;;;1.40;;
14373;SDS011;7270;49.004;12.066;2023-02-02T15:17:10;1.40;;;1.30;;
14373;SDS011;7270;49.004;12.066;2023-02-02T15:19:41;1.40;;;1.30;;
14373;SDS011;7270;49.004;12.066;2023-02-02T15:22:14;1.50;;;1.40;;